Time;durP1;ratioP1;P1;durP2;ratioP2;P2;SDS_P1;SDS_P2;PMS_P1;PMS_P2;Temp;Humidity;BMP_temperature;BMP_pressure;BME280_temperature;BME280_humidity;BME280_pressure;Samples;Min_cycle;Max_cycle;Signal;HPM_P1;HPM_P2
2021/06/22 00:01:20;;;;;;;1.02;0.95;;;33.90;94.80;;;;;;4975271;28;20601;-93
2021/06/22 00:03:52;;;;;;;2.83;0.98;;;33.70;92.80;;;;;;4975252;28;20210;-91
2021/06/22 00:06:25;;;;;;;1.35;0.90;;;33.90;93.80;;;;;;4977903;28;20207;-91
2021/06/22 00:08:56;;;;;;;2.53;0.80;;;34.20;93.70;;;;;;4979702;28;20640;-91
2021/06/22 00:11:27;;;;;;;2.33;1.02;;;34.40;93.30;;;;;;4976716;28;20337;-91
2021/06/22 00:13:59;;;;;;;6.38;1.20;;;34.60;93.80;;;;;;4977401;28;20237;-92
2021/06/22 00:16:30;;;;;;;1.25;0.75;;;34.50;92.50;;;;;;4975918;28;20210;-91
2021/06/22 00:19:01;;;;;;;3.13;1.83;;;34.70;92.60;;;;;;4976359;28;20317;-91
2021/06/22 00:21:34;;;;;;;3.55;3.20;;;34.60;91.70;;;;;;4959404;28;20231;-91
2021/06/22 00:24:06;;;;;;;1.83;1.30;;;34.50;92.20;;;;;;4958910;28;20282;-92
2021/06/22 00:26:37;;;;;;;3.10;1.80;;;34.40;92.00;;;;;;4959010;28;20298;-92
2021/06/22 00:29:08;;;;;;;3.90;1.40;;;34.40;92.10;;;;;;4975766;28;20255;-92
2021/06/22 00:31:39;;;;;;;1.60;0.93;;;34.40;91.80;;;;;;4975595;28;20619;-92
2021/06/22 00:34:10;;;;;;;1.92;1.30;;;34.30;92.20;;;;;;4976152;28;20219;-92
2021/06/22 00:36:44;;;;;;;2.20;0.80;;;33.90;92.70;;;;;;4978155;28;20215;-92
2021/06/22 00:39:15;;;;;;;0.80;0.80;;;33.90;91.50;;;;;;4976956;28;20235;-91
2021/06/22 00:41:46;;;;;;;1.42;1.05;;;34.10;92.60;;;;;;4980685;28;20229;-92
2021/06/22 00:44:17;;;;;;;1.52;1.02;;;34.00;92.40;;;;;;4994140;28;20195;-92
2021/06/22 00:46:48;;;;;;;2.10;0.93;;;33.90;92.80;;;;;;4988337;28;20242;-90
2021/06/22 00:49:20;;;;;;;5.45;1.27;;;34.20;92.40;;;;;;4980266;28;20239;-94
2021/06/22 00:51:54;;;;;;;3.28;1.00;;;34.80;91.80;;;;;;4981772;28;20680;-91
2021/06/22 00:54:25;;;;;;;2.60;1.02;;;34.90;92.60;;;;;;4979173;28;20303;-91
2021/06/22 00:56:57;;;;;;;3.53;0.95;;;35.60;92.10;;;;;;4981457;28;20290;-92
2021/06/22 00:59:28;;;;;;;1.10;1.00;;;36.20;92.00;;;;;;4979535;28;20728;-91
2021/06/22 01:01:59;;;;;;;4.00;1.10;;;36.20;91.10;;;;;;4978497;28;20274;-91
2021/06/22 01:04:31;;;;;;;0.80;0.80;;;36.30;90.60;;;;;;4978406;28;20231;-91
2021/06/22 01:07:06;;;;;;;2.50;1.25;;;36.80;91.30;;;;;;4977228;28;20241;-91
2021/06/22 01:09:37;;;;;;;1.38;0.95;;;36.80;91.00;;;;;;4959586;29;20305;-91
2021/06/22 01:12:09;;;;;;;3.92;1.00;;;36.50;90.80;;;;;;4958996;28;20242;-91
2021/06/22 01:14:45;;;;;;;0.85;0.82;;;35.80;91.70;;;;;;4963816;28;20211;-91
2021/06/22 01:17:18;;;;;;;1.95;1.10;;;35.80;91.20;;;;;;4978550;28;20346;-90
2021/06/22 01:19:49;;;;;;;1.02;0.80;;;36.00;91.80;;;;;;4978299;28;20685;-95
2021/06/22 01:22:22;;;;;;;1.90;0.80;;;36.10;93.00;;;;;;4978250;28;20211;-91
2021/06/22 01:24:54;;;;;;;4.75;1.17;;;36.20;91.30;;;;;;4978955;28;20329;-91
2021/06/22 01:27:25;;;;;;;2.28;0.90;;;36.50;91.90;;;;;;4978453;28;20311;-91
2021/06/22 01:29:56;;;;;;;1.88;0.93;;;37.00;91.30;;;;;;4961234;28;20222;-91
2021/06/22 01:32:27;;;;;;;1.13;1.00;;;36.80;91.40;;;;;;4969050;28;20203;-91
2021/06/22 01:34:59;;;;;;;2.05;1.00;;;37.10;90.00;;;;;;4959688;28;20215;-94
2021/06/22 01:37:32;;;;;;;3.72;0.90;;;37.40;88.00;;;;;;4966713;28;20239;-90
2021/06/22 01:40:07;;;;;;;1.35;0.93;;;37.70;88.90;;;;;;4956851;29;20574;-91
2021/06/22 01:42:39;;;;;;;3.80;1.10;;;37.30;88.50;;;;;;4960843;28;20238;-90
2021/06/22 01:45:11;;;;;;;2.15;1.00;;;37.40;88.70;;;;;;4977405;28;20235;-90
2021/06/22 01:47:43;;;;;;;1.88;1.20;;;37.50;88.70;;;;;;4976766;28;20215;-91
2021/06/22 01:50:16;;;;;;;2.35;0.90;;;37.70;88.00;;;;;;4977353;28;20221;-91
2021/06/22 01:52:51;;;;;;;1.67;0.93;;;37.70;87.70;;;;;;4976951;28;20263;-91
2021/06/22 01:55:41;;;;;;;2.28;1.25;;;37.80;86.80;;;;;;4978552;28;20731;-91
2021/06/22 01:58:14;;;;;;;1.10;0.85;;;37.30;87.40;;;;;;4979077;28;20346;-90
2021/06/22 02:00:49;;;;;;;1.73;1.20;;;36.60;90.00;;;;;;4985557;28;20228;-91
2021/06/22 02:03:22;;;;;;;1.50;1.08;;;36.70;88.80;;;;;;4997513;28;20206;-91
2021/06/22 02:05:53;;;;;;;2.53;0.88;;;37.00;88.40;;;;;;4983816;28;20261;-90
2021/06/22 02:08:26;;;;;;;4.10;1.33;;;37.00;88.10;;;;;;4978558;28;20203;-88
2021/06/22 02:10:57;;;;;;;2.97;1.20;;;36.60;88.10;;;;;;4976760;28;20379;-90
2021/06/22 02:13:31;;;;;;;3.08;1.25;;;36.30;89.60;;;;;;4977172;28;20529;-90
2021/06/22 02:16:02;;;;;;;3.33;1.10;;;36.00;89.70;;;;;;4976968;28;20214;-89
2021/06/22 02:18:33;;;;;;;4.38;1.17;;;36.00;90.60;;;;;;4974671;28;20301;-89
2021/06/22 02:21:05;;;;;;;3.05;1.00;;;36.30;90.60;;;;;;4958999;28;20687;-90
2021/06/22 02:23:39;;;;;;;3.70;1.50;;;36.00;90.50;;;;;;4961434;28;20211;-91
2021/06/22 02:26:10;;;;;;;2.30;1.13;;;35.90;90.10;;;;;;4970088;28;20758;-91
2021/06/22 02:28:40;;;;;;;4.88;1.35;;;36.20;90.60;;;;;;4976649;28;20294;-91
2021/06/22 02:31:11;;;;;;;2.65;1.10;;;36.00;91.00;;;;;;4976934;28;20346;-90
2021/06/22 02:33:42;;;;;;;2.67;1.08;;;36.20;90.60;;;;;;4976866;28;20246;-92
2021/06/22 02:36:13;;;;;;;2.63;1.00;;;36.20;90.40;;;;;;4976639;28;20231;-90
2021/06/22 02:38:46;;;;;;;1.40;1.02;;;35.50;91.10;;;;;;4976630;28;20269;-91
2021/06/22 02:41:17;;;;;;;3.05;1.35;;;34.30;91.70;;;;;;4977258;28;20214;-90
2021/06/22 02:43:48;;;;;;;4.13;1.35;;;33.40;92.30;;;;;;4975727;28;20291;-90
2021/06/22 02:46:20;;;;;;;1.25;1.10;;;32.40;93.80;;;;;;4973180;28;20326;-90
2021/06/22 02:48:50;;;;;;;4.45;1.35;;;32.00;93.80;;;;;;4976095;28;20301;-92
2021/06/22 02:51:21;;;;;;;2.08;1.48;;;31.50;94.50;;;;;;4976795;28;20211;-90
2021/06/22 02:53:55;;;;;;;2.00;1.17;;;31.20;94.90;;;;;;4976446;28;20306;-90
2021/06/22 02:56:26;;;;;;;4.57;1.40;;;30.90;95.00;;;;;;4976407;28;20241;-91
2021/06/22 02:58:57;;;;;;;2.75;1.10;;;30.50;96.30;;;;;;4975706;28;20237;-91
2021/06/22 03:01:28;;;;;;;2.22;1.38;;;30.10;96.30;;;;;;4975516;28;20234;-92
2021/06/22 03:04:00;;;;;;;3.85;1.40;;;29.90;96.80;;;;;;4977145;28;20213;-91
2021/06/22 03:06:31;;;;;;;4.57;1.70;;;29.80;97.40;;;;;;4979752;28;20660;-92
2021/06/22 03:09:05;;;;;;;4.05;1.40;;;29.60;97.70;;;;;;4979167;28;20206;-91
2021/06/22 03:11:36;;;;;;;4.03;1.40;;;29.30;98.60;;;;;;4976795;28;20239;-92
2021/06/22 03:14:07;;;;;;;2.00;1.10;;;29.20;98.20;;;;;;4996371;28;20214;-92
2021/06/22 03:16:38;;;;;;;1.37;1.00;;;29.10;97.70;;;;;;4996404;28;20213;-91
2021/06/22 03:19:09;;;;;;;1.23;0.97;;;28.90;97.60;;;;;;4994937;28;20194;-92
2021/06/22 03:21:43;;;;;;;8.73;1.20;;;28.80;97.60;;;;;;4985539;28;20242;-91
2021/06/22 03:24:17;;;;;;;1.50;1.03;;;28.70;98.70;;;;;;4986124;28;20201;-92
2021/06/22 03:26:49;;;;;;;2.03;1.00;;;28.50;97.70;;;;;;4964030;29;20235;-91
2021/06/22 03:29:22;;;;;;;4.07;1.40;;;28.40;97.70;;;;;;4974415;28;20223;-90
2021/06/22 03:31:54;;;;;;;3.40;1.10;;;28.30;98.30;;;;;;4975626;28;20235;-92
2021/06/22 03:34:24;;;;;;;1.63;1.30;;;28.20;97.50;;;;;;4977856;28;20682;-92
2021/06/22 03:36:56;;;;;;;1.80;0.93;;;28.10;98.40;;;;;;4982845;28;20211;-91
2021/06/22 03:39:28;;;;;;;4.37;1.20;;;28.00;98.20;;;;;;4978188;28;20242;-90
2021/06/22 03:42:00;;;;;;;1.60;0.90;;;27.90;97.50;;;;;;4974726;28;20210;-91
2021/06/22 03:44:31;;;;;;;1.23;0.87;;;27.80;98.30;;;;;;4975289;28;20726;-91
2021/06/22 03:47:01;;;;;;;1.40;0.80;;;27.70;98.50;;;;;;4977119;28;20242;-90
2021/06/22 03:49:32;;;;;;;2.47;1.20;;;27.50;98.00;;;;;;4977229;28;20221;-92
2021/06/22 03:52:04;;;;;;;3.07;1.10;;;27.40;99.20;;;;;;4977196;28;20241;-91
2021/06/22 03:54:37;;;;;;;3.17;0.90;;;27.20;98.70;;;;;;4957186;28;20219;-89
2021/06/22 03:57:08;;;;;;;2.77;1.10;;;27.10;98.30;;;;;;4973104;28;20233;-89
2021/06/22 03:59:39;;;;;;;2.43;1.00;;;27.00;99.10;;;;;;4976029;28;20848;-89
2021/06/22 04:02:10;;;;;;;1.53;1.07;;;26.80;99.90;;;;;;4974428;28;20218;-90
2021/06/22 04:04:42;;;;;;;4.87;1.00;;;26.60;99.90;;;;;;4976783;28;20253;-90
2021/06/22 04:07:13;;;;;;;2.70;0.90;;;26.40;99.90;;;;;;4977194;28;20230;-90
2021/06/22 04:10:04;;;;;;;6.23;1.10;;;26.30;99.90;;;;;;4977796;28;20214;-90
2021/06/22 04:12:35;;;;;;;3.50;1.00;;;26.10;99.90;;;;;;4975731;28;20242;-89
2021/06/22 04:15:08;;;;;;;1.40;0.80;;;26.10;99.90;;;;;;4959144;28;20243;-89
2021/06/22 04:17:39;;;;;;;2.27;0.80;;;26.10;99.90;;;;;;4961121;28;20623;-89
2021/06/22 04:20:12;;;;;;;4.00;1.07;;;26.00;99.90;;;;;;4954131;28;20279;-90
2021/06/22 04:22:43;;;;;;;1.43;1.10;;;25.90;99.90;;;;;;4975732;28;20258;-89
2021/06/22 04:25:16;;;;;;;1.93;1.03;;;25.70;99.90;;;;;;4978646;28;20222;-90
2021/06/22 04:27:48;;;;;;;2.90;1.17;;;25.60;99.90;;;;;;4979798;28;20222;-90
2021/06/22 04:30:20;;;;;;;2.13;1.03;;;25.60;99.90;;;;;;4978666;28;20206;-89
2021/06/22 04:32:51;;;;;;;1.77;0.93;;;25.40;99.90;;;;;;4980237;28;20231;-89
2021/06/22 04:35:21;;;;;;;1.60;1.10;;;25.30;99.90;;;;;;4979162;28;20250;-89
2021/06/22 04:37:52;;;;;;;3.67;1.43;;;25.20;99.90;;;;;;4981985;28;20210;-89
2021/06/22 04:40:26;;;;;;;2.80;1.30;;;25.20;99.90;;;;;;4984784;28;20679;-88
2021/06/22 04:43:00;;;;;;;2.13;1.20;;;25.00;99.90;;;;;;4984733;28;20214;-89
2021/06/22 04:45:32;;;;;;;3.80;1.30;;;24.80;99.90;;;;;;4991779;28;20194;-89
2021/06/22 04:48:04;;;;;;;2.73;1.20;;;24.80;99.90;;;;;;5006406;28;20219;-91
2021/06/22 04:50:35;;;;;;;3.60;1.20;;;24.70;99.90;;;;;;4995201;28;20226;-90
2021/06/22 04:53:06;;;;;;;2.93;1.33;;;24.50;99.90;;;;;;4995863;28;20358;-90
2021/06/22 04:55:40;;;;;;;1.63;1.10;;;24.40;99.90;;;;;;4979556;28;20273;-90
2021/06/22 04:58:12;;;;;;;5.40;1.30;;;24.30;99.90;;;;;;4986730;28;20254;-90
2021/06/22 05:00:44;;;;;;;1.20;1.10;;;24.10;99.90;;;;;;4984538;28;20620;-90
2021/06/22 05:03:15;;;;;;;2.77;1.40;;;24.10;99.90;;;;;;4978028;28;20625;-90
2021/06/22 05:05:46;;;;;;;3.40;1.63;;;24.00;99.90;;;;;;4977846;28;20207;-89
2021/06/22 05:08:17;;;;;;;4.80;1.47;;;23.90;99.90;;;;;;4992196;28;20238;-90
2021/06/22 05:10:50;;;;;;;3.27;1.90;;;23.80;99.90;;;;;;4994538;28;20210;-89
2021/06/22 05:13:22;;;;;;;3.33;1.27;;;23.70;99.90;;;;;;4987322;28;20790;-89
2021/06/22 05:15:53;;;;;;;5.47;1.73;;;23.60;99.90;;;;;;4977608;28;20211;-89
2021/06/22 05:18:23;;;;;;;4.47;1.43;;;23.60;99.90;;;;;;4978625;28;20207;-88
2021/06/22 05:20:55;;;;;;;2.33;1.43;;;23.50;99.90;;;;;;4976936;28;20270;-89
2021/06/22 05:23:27;;;;;;;2.10;1.13;;;23.40;99.90;;;;;;4977312;28;20214;-89
2021/06/22 05:26:00;;;;;;;3.97;0.97;;;23.40;99.90;;;;;;4977857;28;20206;-89
2021/06/22 05:28:31;;;;;;;1.30;1.20;;;23.40;99.90;;;;;;4977876;28;20263;-90
2021/06/22 05:31:01;;;;;;;1.70;1.03;;;23.40;99.90;;;;;;4957865;29;20235;-90
2021/06/22 05:33:32;;;;;;;2.30;0.93;;;23.30;99.90;;;;;;4958439;28;20214;-89
2021/06/22 05:36:06;;;;;;;2.03;1.10;;;23.30;99.90;;;;;;4957210;28;20278;-89
2021/06/22 05:38:36;;;;;;;3.47;1.43;;;23.30;99.90;;;;;;4957181;29;20251;-90
2021/06/22 05:41:09;;;;;;;3.07;1.60;;;23.20;99.90;;;;;;4975747;28;20627;-89
2021/06/22 05:43:40;;;;;;;3.77;1.27;;;23.20;99.90;;;;;;4984490;28;20246;-90
2021/06/22 05:46:10;;;;;;;2.03;1.10;;;23.20;99.90;;;;;;4977840;28;20216;-89
2021/06/22 05:48:41;;;;;;;3.80;1.07;;;23.10;99.90;;;;;;4980976;28;20247;-90
2021/06/22 05:51:12;;;;;;;2.97;1.30;;;23.10;99.90;;;;;;4988020;28;20210;-89
2021/06/22 05:53:42;;;;;;;2.50;1.17;;;23.20;99.90;;;;;;4978301;28;20215;-90
2021/06/22 05:56:14;;;;;;;4.10;1.20;;;23.20;99.90;;;;;;4977249;28;20306;-89
2021/06/22 05:58:46;;;;;;;2.53;1.10;;;23.20;99.90;;;;;;4977094;28;20207;-90
2021/06/22 06:01:16;;;;;;;2.80;1.00;;;23.10;99.90;;;;;;4976295;28;20207;-90
2021/06/22 06:03:48;;;;;;;2.10;0.80;;;23.10;99.90;;;;;;4976845;28;20299;-90
2021/06/22 06:06:19;;;;;;;1.40;0.90;;;23.10;99.90;;;;;;4975950;28;20265;-89
2021/06/22 06:08:49;;;;;;;1.97;0.80;;;23.10;99.90;;;;;;4976400;28;20317;-90
2021/06/22 06:11:22;;;;;;;1.27;0.80;;;23.00;99.90;;;;;;4956744;29;20219;-90
2021/06/22 06:13:53;;;;;;;1.53;1.00;;;23.00;99.90;;;;;;4957170;28;20222;-90
2021/06/22 06:16:23;;;;;;;1.17;0.97;;;23.00;99.90;;;;;;4957338;28;20294;-89
2021/06/22 06:18:55;;;;;;;2.17;0.90;;;22.90;99.90;;;;;;4957557;28;20238;-90
2021/06/22 06:21:26;;;;;;;2.33;0.90;;;22.80;99.90;;;;;;4956991;28;20271;-90
2021/06/22 06:23:58;;;;;;;2.47;0.80;;;22.80;99.90;;;;;;4959139;29;20262;-89
2021/06/22 06:26:36;;;;;;;1.60;0.80;;;22.70;99.90;;;;;;4959266;28;20215;-89
2021/06/22 06:29:14;;;;;;;1.03;0.70;;;22.70;99.90;;;;;;4959497;28;20256;-89
2021/06/22 06:31:45;;;;;;;1.33;0.77;;;22.50;99.90;;;;;;4959214;28;20712;-90
2021/06/22 06:34:16;;;;;;;1.53;0.70;;;22.50;99.90;;;;;;4957241;28;20219;-89
2021/06/22 06:36:48;;;;;;;1.80;0.83;;;22.40;99.90;;;;;;4961130;28;20211;-89
2021/06/22 06:39:19;;;;;;;4.93;1.00;;;22.30;99.90;;;;;;4979182;28;20219;-90
2021/06/22 06:41:53;;;;;;;0.80;0.80;;;22.20;99.90;;;;;;4979742;28;20207;-90
2021/06/22 06:44:25;;;;;;;1.23;0.73;;;22.10;99.90;;;;;;4978506;28;20227;-90
2021/06/22 06:46:57;;;;;;;1.67;0.83;;;22.10;99.90;;;;;;4978703;28;20602;-90
2021/06/22 06:49:28;;;;;;;1.17;0.93;;;22.10;99.90;;;;;;4978327;28;20353;-90
2021/06/22 06:51:59;;;;;;;2.43;1.20;;;22.00;99.90;;;;;;4979132;28;20636;-89
2021/06/22 06:54:36;;;;;;;1.77;0.90;;;21.90;99.90;;;;;;4978369;28;20599;-90
2021/06/22 06:57:09;;;;;;;1.00;0.90;;;21.90;99.90;;;;;;4975842;28;20297;-90
2021/06/22 06:59:40;;;;;;;2.63;1.10;;;21.90;99.90;;;;;;4980859;28;20206;-89
2021/06/22 07:02:12;;;;;;;1.13;0.80;;;21.80;99.90;;;;;;4974997;28;20739;-89
2021/06/22 07:04:43;;;;;;;1.70;0.90;;;21.70;99.90;;;;;;4975680;28;20211;-89
2021/06/22 07:07:14;;;;;;;1.53;1.00;;;21.80;99.90;;;;;;4975532;28;20242;-89
2021/06/22 07:09:44;;;;;;;1.57;0.93;;;21.70;99.90;;;;;;4977297;28;20246;-89
2021/06/22 07:12:23;;;;;;;1.73;0.70;;;21.70;99.90;;;;;;4993567;28;20725;-89
2021/06/22 07:14:55;;;;;;;2.20;0.80;;;21.70;99.90;;;;;;4999609;28;20217;-89
2021/06/22 07:17:27;;;;;;;1.43;0.90;;;21.60;99.90;;;;;;4993961;28;20743;-89
2021/06/22 07:20:01;;;;;;;2.23;1.10;;;21.50;99.90;;;;;;4978696;28;20243;-90
2021/06/22 07:22:32;;;;;;;1.03;0.87;;;21.40;99.90;;;;;;4974739;28;20218;-89
2021/06/22 07:25:04;;;;;;;2.97;1.00;;;21.40;99.90;;;;;;4974815;28;20214;-89
2021/06/22 07:27:37;;;;;;;1.20;0.73;;;21.30;99.90;;;;;;4974341;28;20286;-90
2021/06/22 07:30:10;;;;;;;6.07;0.93;;;21.30;99.90;;;;;;4975207;28;20241;-90
2021/06/22 07:32:41;;;;;;;2.03;1.10;;;21.20;99.90;;;;;;4632855;28;9999621;-89
2021/06/22 07:35:14;;;;;;;1.93;0.70;;;21.20;99.90;;;;;;4974778;28;20278;-90
2021/06/22 07:37:45;;;;;;;0.97;0.70;;;21.10;99.90;;;;;;4975137;28;20203;-89
2021/06/22 07:40:17;;;;;;;1.90;1.00;;;21.00;99.90;;;;;;4976398;28;20592;-90
2021/06/22 07:42:50;;;;;;;1.03;0.80;;;21.00;99.90;;;;;;4975220;28;20237;-90
2021/06/22 07:45:22;;;;;;;1.93;0.80;;;20.90;99.90;;;;;;4975673;28;20635;-90
2021/06/22 07:47:55;;;;;;;0.83;0.83;;;21.00;99.90;;;;;;4974989;28;20219;-89
2021/06/22 07:50:26;;;;;;;1.37;0.87;;;20.90;99.90;;;;;;4974352;28;20301;-89
2021/06/22 07:52:57;;;;;;;1.97;0.90;;;20.90;99.90;;;;;;4975204;28;20262;-89
2021/06/22 07:55:28;;;;;;;2.70;0.90;;;20.90;99.90;;;;;;4975402;28;20234;-90
2021/06/22 07:58:00;;;;;;;1.07;0.77;;;20.90;99.90;;;;;;4974980;28;20294;-89
2021/06/22 08:00:41;;;;;;;1.13;0.93;;;20.90;99.90;;;;;;4977203;28;20252;-90
2021/06/22 08:03:13;;;;;;;0.87;0.87;;;20.90;99.90;;;;;;4978905;28;20214;-90
2021/06/22 08:05:45;;;;;;;2.83;1.20;;;20.80;99.90;;;;;;4979473;28;20222;-89
2021/06/22 08:08:17;;;;;;;1.13;0.90;;;20.80;99.90;;;;;;4978835;28;20310;-89
2021/06/22 08:10:50;;;;;;;0.90;0.80;;;20.80;99.90;;;;;;4977403;28;20264;-89
2021/06/22 08:13:24;;;;;;;6.10;1.23;;;20.70;99.90;;;;;;4979342;28;20253;-90
2021/06/22 08:15:56;;;;;;;3.27;1.07;;;20.70;99.90;;;;;;4997132;28;20218;-90
2021/06/22 08:18:27;;;;;;;2.20;0.90;;;20.60;99.90;;;;;;5001326;28;20207;-90
2021/06/22 08:20:58;;;;;;;2.63;0.90;;;20.60;99.90;;;;;;4999858;28;20197;-90
2021/06/22 08:23:29;;;;;;;2.63;1.00;;;20.50;99.90;;;;;;4982486;28;20297;-89
2021/06/22 08:26:01;;;;;;;1.97;1.00;;;20.50;99.90;;;;;;4979932;28;20215;-89
2021/06/22 08:28:34;;;;;;;1.47;0.90;;;20.40;99.90;;;;;;4979164;28;20231;-89
2021/06/22 08:31:05;;;;;;;2.40;0.80;;;20.40;99.90;;;;;;4978492;28;20207;-89
2021/06/22 08:33:36;;;;;;;2.57;0.97;;;20.30;99.90;;;;;;4978599;28;20553;-89
2021/06/22 08:36:07;;;;;;;3.53;0.90;;;20.30;99.90;;;;;;4978081;28;20234;-90
2021/06/22 08:38:38;;;;;;;4.07;1.43;;;20.20;99.90;;;;;;4978559;28;20222;-89
2021/06/22 08:41:10;;;;;;;1.27;0.80;;;20.20;99.90;;;;;;4977969;28;20203;-89
2021/06/22 08:43:43;;;;;;;2.03;0.97;;;20.20;99.90;;;;;;4978208;28;20547;-89
2021/06/22 08:46:13;;;;;;;1.43;1.03;;;20.10;99.90;;;;;;4978585;28;20249;-89
2021/06/22 08:48:45;;;;;;;1.73;1.00;;;20.10;99.90;;;;;;4977976;28;20344;-89
2021/06/22 08:51:37;;;;;;;0.97;0.90;;;20.10;99.90;;;;;;4976889;28;20210;-89
2021/06/22 08:54:10;;;;;;;2.93;0.80;;;20.00;99.90;;;;;;4978123;28;20214;-89
2021/06/22 08:56:41;;;;;;;0.80;0.80;;;20.00;99.90;;;;;;4978219;28;20302;-89
2021/06/22 08:59:13;;;;;;;1.63;1.00;;;20.00;99.90;;;;;;4978132;28;20238;-89
2021/06/22 09:01:44;;;;;;;1.77;1.00;;;19.90;99.90;;;;;;4976919;28;20245;-89
2021/06/22 09:04:16;;;;;;;1.73;1.07;;;19.90;99.90;;;;;;4977949;28;20253;-89
2021/06/22 09:06:47;;;;;;;1.43;0.87;;;19.80;99.90;;;;;;4977652;28;20225;-89
2021/06/22 09:09:18;;;;;;;2.33;0.73;;;19.80;99.90;;;;;;4979315;28;20299;-89
2021/06/22 09:12:07;;;;;;;1.73;0.90;;;19.70;99.90;;;;;;4976101;28;20241;-90
2021/06/22 09:14:41;;;;;;;1.83;0.90;;;19.60;99.90;;;;;;4977724;28;20640;-89
2021/06/22 09:17:12;;;;;;;2.43;1.03;;;19.60;99.90;;;;;;4958658;28;20246;-89
2021/06/22 09:19:52;;;;;;;1.20;1.10;;;19.60;99.90;;;;;;4982150;28;20210;-90
2021/06/22 09:22:27;;;;;;;0.80;0.77;;;19.50;99.90;;;;;;4988448;28;20670;-90
2021/06/22 09:25:08;;;;;;;1.80;0.90;;;19.50;99.90;;;;;;4978135;28;20293;-90
2021/06/22 09:27:52;;;;;;;1.40;0.97;;;19.40;99.90;;;;;;4980219;28;20303;-89
2021/06/22 09:30:50;;;;;;;2.00;1.07;;;19.30;99.90;;;;;;4977567;28;20302;-89
2021/06/22 09:33:24;;;;;;;2.80;1.00;;;19.30;99.90;;;;;;4979654;28;20215;-90
2021/06/22 09:36:15;;;;;;;1.93;1.03;;;19.20;99.90;;;;;;4979921;28;20229;-89
2021/06/22 09:38:52;;;;;;;2.17;0.90;;;19.20;99.90;;;;;;4975767;28;20257;-89
2021/06/22 09:41:26;;;;;;;3.33;1.00;;;19.10;99.90;;;;;;4958269;28;21030;-88
2021/06/22 09:44:04;;;;;;;1.57;1.00;;;19.10;99.90;;;;;;4959514;28;20443;-88
2021/06/22 09:46:42;;;;;;;0.97;0.90;;;19.10;99.90;;;;;;4978112;28;20651;-87
2021/06/22 09:49:14;;;;;;;1.57;1.10;;;19.10;99.90;;;;;;4976496;28;20258;-88
2021/06/22 09:51:58;;;;;;;3.47;0.90;;;19.00;99.90;;;;;;4976959;28;20270;-89
2021/06/22 09:54:29;;;;;;;1.63;0.90;;;19.00;99.90;;;;;;4978623;28;20286;-89
2021/06/22 09:57:04;;;;;;;2.30;1.00;;;19.00;99.90;;;;;;4979195;28;20234;-88
2021/06/22 09:59:50;;;;;;;1.10;1.00;;;19.00;99.90;;;;;;4980407;28;20242;-88
2021/06/22 10:02:24;;;;;;;3.37;0.90;;;18.90;99.90;;;;;;4978383;28;20234;-89
2021/06/22 10:04:57;;;;;;;2.40;1.20;;;18.90;99.90;;;;;;4981051;28;20212;-89
2021/06/22 10:07:29;;;;;;;2.43;1.00;;;18.90;99.90;;;;;;4981815;28;20211;-88
2021/06/22 10:10:02;;;;;;;0.80;0.80;;;18.80;99.90;;;;;;4982554;28;20238;-88
2021/06/22 10:12:35;;;;;;;1.57;1.10;;;18.70;99.90;;;;;;4998190;28;20203;-90
2021/06/22 10:15:07;;;;;;;1.77;0.80;;;18.70;99.90;;;;;;4998067;28;20215;-88
2021/06/22 10:17:41;;;;;;;1.17;1.00;;;18.70;99.90;;;;;;4997711;28;20215;-87
2021/06/22 10:20:12;;;;;;;2.53;1.20;;;18.60;99.90;;;;;;4986007;28;20238;-88
2021/06/22 10:22:45;;;;;;;1.33;1.10;;;18.60;99.90;;;;;;4984766;28;20253;-88
2021/06/22 10:25:17;;;;;;;1.83;1.10;;;18.60;99.90;;;;;;4979958;28;20238;-89
2021/06/22 10:27:51;;;;;;;2.70;0.90;;;18.50;99.90;;;;;;4977042;28;20298;-88
2021/06/22 10:30:24;;;;;;;1.20;1.00;;;18.50;99.90;;;;;;4976202;28;20230;-88
2021/06/22 10:32:58;;;;;;;3.13;1.20;;;18.50;99.90;;;;;;4995964;28;20294;-88
2021/06/22 10:35:28;;;;;;;2.30;1.00;;;18.50;99.90;;;;;;4995591;28;20224;-88
2021/06/22 10:38:07;;;;;;;1.00;0.90;;;18.40;99.90;;;;;;4995787;28;20225;-89
2021/06/22 10:40:38;;;;;;;5.27;1.00;;;18.50;99.90;;;;;;4995863;28;20230;-89
2021/06/22 10:43:09;;;;;;;3.93;1.00;;;18.40;99.90;;;;;;4995994;28;20217;-89
2021/06/22 10:45:56;;;;;;;2.30;1.10;;;18.40;99.90;;;;;;5003784;28;20292;-90
2021/06/22 10:48:39;;;;;;;1.53;1.00;;;18.40;99.90;;;;;;5017250;28;20371;-89
2021/06/22 10:51:44;;;;;;;1.33;0.90;;;18.40;99.90;;;;;;5007318;28;20222;-90
2021/06/22 10:54:55;;;;;;;1.67;1.00;;;18.50;99.90;;;;;;4940657;28;20751;-89
2021/06/22 10:57:58;;;;;;;1.23;1.00;;;18.40;99.90;;;;;;4956914;29;20695;-89
2021/06/22 11:00:31;;;;;;;2.20;1.20;;;18.40;99.90;;;;;;4956565;28;20295;-89
2021/06/22 11:03:06;;;;;;;1.00;0.90;;;18.30;99.90;;;;;;4956899;28;20619;-89
2021/06/22 11:05:41;;;;;;;1.93;0.90;;;18.30;99.90;;;;;;4956453;28;20299;-88
2021/06/22 11:08:33;;;;;;;3.73;1.07;;;18.20;99.90;;;;;;4956600;28;20647;-88
2021/06/22 11:11:24;;;;;;;2.47;1.40;;;18.30;99.90;;;;;;4955617;28;20315;-89
2021/06/22 11:13:58;;;;;;;1.30;1.20;;;18.30;99.90;;;;;;4982947;28;20727;-89
2021/06/22 11:16:33;;;;;;;2.87;1.60;;;18.40;99.90;;;;;;4995147;28;20211;-88
2021/06/22 11:19:07;;;;;;;1.63;1.53;;;18.50;99.90;;;;;;4994501;28;20210;-88
2021/06/22 11:21:54;;;;;;;2.13;1.77;;;18.50;99.90;;;;;;4993516;28;20297;-88
2021/06/22 11:24:31;;;;;;;3.33;1.50;;;18.60;99.90;;;;;;4976845;28;20210;-88
2021/06/22 11:27:07;;;;;;;2.33;1.60;;;18.70;99.90;;;;;;4994682;28;20682;-89
2021/06/22 11:30:01;;;;;;;2.43;1.60;;;18.70;99.90;;;;;;4994264;28;20606;-89
2021/06/22 11:32:39;;;;;;;2.50;1.70;;;18.60;99.90;;;;;;4994959;28;20297;-88
2021/06/22 11:35:18;;;;;;;4.90;2.10;;;18.60;99.90;;;;;;4994413;28;20218;-89
2021/06/22 11:37:51;;;;;;;3.37;2.10;;;18.50;99.90;;;;;;4994709;28;20220;-89
2021/06/22 11:40:23;;;;;;;5.83;1.63;;;18.50;99.90;;;;;;4982407;28;20309;-89
2021/06/22 11:43:09;;;;;;;3.87;1.90;;;18.50;99.90;;;;;;4975275;28;20207;-89
2021/06/22 11:45:40;;;;;;;3.00;1.57;;;18.40;99.90;;;;;;4974953;28;20296;-89
2021/06/22 11:48:11;;;;;;;4.17;1.77;;;18.40;99.90;;;;;;4975274;28;20207;-89
2021/06/22 11:51:01;;;;;;;6.03;2.00;;;18.30;99.90;;;;;;4974314;28;20326;-89
2021/06/22 11:53:37;;;;;;;6.63;2.27;;;18.30;99.90;;;;;;4975092;28;20253;-89
2021/06/22 11:56:15;;;;;;;5.73;1.90;;;18.30;99.90;;;;;;4975309;28;20601;-89
2021/06/22 11:58:48;;;;;;;3.93;2.10;;;18.20;99.90;;;;;;4975304;28;20238;-89
2021/06/22 12:01:19;;;;;;;3.50;2.03;;;18.20;99.90;;;;;;4974482;28;20330;-89
2021/06/22 12:03:55;;;;;;;6.20;2.30;;;18.10;99.90;;;;;;4975207;28;20218;-89
2021/06/22 12:06:26;;;;;;;4.90;2.30;;;18.00;99.90;;;;;;4975396;28;20245;-90
2021/06/22 12:08:59;;;;;;;4.90;2.03;;;18.00;99.90;;;;;;4973893;28;20211;-90
2021/06/22 12:11:32;;;;;;;3.53;1.80;;;17.90;99.90;;;;;;4955053;29;20281;-89
2021/06/22 12:14:03;;;;;;;3.90;1.83;;;17.90;99.90;;;;;;4955982;29;20576;-89
2021/06/22 12:16:34;;;;;;;2.30;1.83;;;17.90;99.90;;;;;;4955766;29;20254;-89
2021/06/22 12:19:06;;;;;;;5.83;2.73;;;17.90;99.90;;;;;;4955367;29;20214;-89
2021/06/22 12:21:39;;;;;;;3.10;1.97;;;17.90;99.90;;;;;;4954754;29;20207;-89
2021/06/22 12:24:14;;;;;;;2.50;1.80;;;17.80;99.90;;;;;;4955282;29;20736;-88
2021/06/22 12:26:48;;;;;;;5.80;2.07;;;17.90;99.90;;;;;;4955380;29;20266;-89
2021/06/22 12:29:21;;;;;;;4.33;1.90;;;17.80;99.90;;;;;;4955613;29;20685;-89
2021/06/22 12:31:53;;;;;;;5.17;2.30;;;17.80;99.90;;;;;;4955161;29;20267;-89
2021/06/22 12:34:24;;;;;;;4.23;2.07;;;17.80;99.90;;;;;;4955944;29;20208;-89
2021/06/22 12:36:56;;;;;;;4.90;2.13;;;17.90;99.90;;;;;;4955645;29;20239;-90
2021/06/22 12:39:38;;;;;;;5.67;2.20;;;17.80;99.90;;;;;;4962062;28;20694;-89
2021/06/22 12:42:11;;;;;;;5.50;2.00;;;17.80;99.90;;;;;;4977627;28;20711;-90
2021/06/22 12:44:42;;;;;;;5.60;2.50;;;17.80;99.90;;;;;;4978235;28;20246;-89
2021/06/22 12:47:12;;;;;;;7.97;1.93;;;17.80;99.90;;;;;;4981975;28;20720;-89
2021/06/22 12:49:44;;;;;;;4.70;1.87;;;17.70;99.90;;;;;;4982806;28;20679;-90
2021/06/22 12:52:16;;;;;;;4.53;2.20;;;17.70;99.90;;;;;;4978540;28;20326;-89
2021/06/22 12:54:51;;;;;;;6.87;2.00;;;17.70;99.90;;;;;;4978214;28;20206;-89
2021/06/22 12:57:25;;;;;;;6.87;2.30;;;17.70;99.90;;;;;;4634367;28;10000540;-90
2021/06/22 12:59:56;;;;;;;8.07;2.40;;;17.80;99.90;;;;;;4977225;28;20640;-90
2021/06/22 13:02:26;;;;;;;4.50;2.00;;;17.80;99.90;;;;;;4977491;28;20219;-89
2021/06/22 13:04:57;;;;;;;5.43;2.20;;;17.80;99.90;;;;;;4988878;28;20294;-89
2021/06/22 13:07:31;;;;;;;4.13;1.63;;;17.80;99.90;;;;;;4997023;28;20245;-89
2021/06/22 13:10:15;;;;;;;7.83;2.47;;;17.70;99.90;;;;;;4996764;28;20206;-88
2021/06/22 13:12:52;;;;;;;7.27;2.33;;;17.80;99.90;;;;;;4991660;28;20254;-89
2021/06/22 13:15:31;;;;;;;7.97;1.93;;;17.70;99.90;;;;;;4977968;28;20218;-89
2021/06/22 13:18:03;;;;;;;5.97;1.80;;;17.70;99.90;;;;;;4977046;28;20293;-89